createdAt,value
2017-03-05T00:00:40.503Z,40.88
2017-03-05T00:01:40.535Z,40.88
2017-03-05T00:02:40.565Z,40.88
2017-03-05T00:03:40.841Z,40.88
2017-03-05T00:04:40.214Z,40.88
2017-03-05T00:05:40.259Z,40.88
2017-03-05T00:06:40.272Z,40.69
2017-03-05T00:07:40.301Z,40.97
2017-03-05T00:08:40.970Z,40.69
2017-03-05T00:09:40.758Z,40.88
2017-03-05T00:10:40.383Z,40.88
2017-03-05T00:11:40.820Z,40.78
2017-03-05T00:12:40.832Z,40.69
2017-03-05T00:13:41.103Z,40.78
2017-03-05T00:14:40.907Z,40.69
2017-03-05T00:15:40.519Z,40.78
2017-03-05T00:16:40.955Z,40.69
2017-03-05T00:17:40.582Z,41.07
2017-03-05T00:18:41.257Z,40.88
2017-03-05T00:19:41.025Z,40.78
2017-03-05T00:20:40.658Z,40.97
2017-03-05T00:21:40.684Z,40.97
2017-03-05T00:22:41.109Z,41.17
2017-03-05T00:23:40.753Z,40.78
2017-03-05T00:24:41.158Z,40.97
2017-03-05T00:25:41.206Z,40.88
2017-03-05T00:26:40.827Z,40.88
2017-03-05T00:27:41.244Z,41.07
2017-03-05T00:28:41.274Z,40.69
2017-03-05T00:29:41.301Z,41.07
2017-03-05T00:30:40.946Z,40.69
2017-03-05T00:31:40.958Z,41.07
2017-03-05T00:32:41.396Z,40.88
2017-03-05T00:33:41.012Z,41.65
2017-03-05T00:34:41.438Z,41.55
2017-03-05T00:35:41.462Z,41.65
2017-03-05T00:36:41.095Z,40.78
2017-03-05T00:37:41.519Z,41.17
2017-03-05T00:38:41.543Z,41.36
2017-03-05T00:39:41.576Z,41.65
2017-03-05T00:40:41.205Z,41.36
2017-03-05T00:41:41.627Z,40.88
2017-03-05T00:42:41.663Z,40.78
2017-03-05T00:43:41.684Z,40.88
2017-03-05T00:44:41.313Z,40.88
2017-03-05T00:45:41.738Z,41.07
2017-03-05T00:46:41.767Z,40.69
2017-03-05T00:47:41.395Z,41.27
2017-03-05T00:48:41.820Z,41.07
2017-03-05T00:49:41.847Z,40.88
2017-03-05T00:50:41.473Z,40.88
2017-03-05T00:51:41.505Z,41.46
2017-03-05T00:52:41.543Z,41.17
2017-03-05T00:53:41.952Z,41.17
2017-03-05T00:54:41.593Z,41.46
2017-03-05T00:55:42.006Z,41.36
2017-03-05T00:56:42.042Z,41.55
2017-03-05T00:57:41.671Z,41.07
2017-03-05T00:58:42.096Z,41.46
2017-03-05T00:59:42.368Z,41.75
2017-03-05T01:00:41.749Z,41.34
2017-03-05T01:01:42.209Z,41.65
2017-03-05T01:02:41.814Z,40.97
2017-03-05T01:03:41.850Z,41.14
2017-03-05T01:04:42.512Z,41.55
2017-03-05T01:05:41.897Z,41.34
2017-03-05T01:06:42.306Z,41.14
2017-03-05T01:07:41.951Z,41.63
2017-03-05T01:08:41.983Z,41.46
2017-03-05T01:09:42.256Z,41.55
2017-03-05T01:10:42.029Z,41.44
2017-03-05T01:11:42.441Z,41.72
2017-03-05T01:12:42.476Z,41.53
2017-03-05T01:13:42.503Z,40.86
2017-03-05T01:14:42.384Z,41.24
2017-03-05T01:15:42.560Z,41.34
2017-03-05T01:16:42.577Z,41.34
2017-03-05T01:17:42.609Z,41.34
2017-03-05T01:18:42.636Z,41.44
2017-03-05T01:19:42.519Z,41.24
2017-03-05T01:20:42.298Z,41.24
2017-03-05T01:21:42.325Z,40.95
2017-03-05T01:22:42.745Z,41.14
2017-03-05T01:23:42.775Z,41.44
2017-03-05T01:24:43.048Z,41.34
2017-03-05T01:25:42.439Z,41.34
2017-03-05T01:26:42.857Z,41.24
2017-03-05T01:27:42.505Z,41.24
2017-03-05T01:28:42.518Z,41.24
2017-03-05T01:29:43.187Z,41.34
2017-03-05T01:30:42.972Z,41.34
2017-03-05T01:31:42.993Z,41.44
2017-03-05T01:32:42.617Z,41.05
2017-03-05T01:33:43.050Z,41.24
2017-03-05T01:34:42.930Z,41.24
2017-03-05T01:35:43.100Z,41.24
2017-03-05T01:36:43.138Z,41.34
2017-03-05T01:37:42.765Z,41.34
2017-03-05T01:38:42.789Z,41.34
2017-03-05T01:39:43.460Z,41.05
2017-03-05T01:40:43.236Z,41.24
2017-03-05T01:41:43.266Z,41.34
2017-03-05T01:42:42.893Z,41.24
2017-03-05T01:43:43.324Z,41.34
2017-03-05T01:44:43.594Z,41.24
2017-03-05T01:45:43.372Z,41.14
2017-03-05T01:46:42.999Z,41.24
2017-03-05T01:47:43.429Z,41.34
2017-03-05T01:48:43.461Z,41.24
2017-03-05T01:49:43.087Z,41.14
2017-03-05T01:50:43.518Z,41.14
2017-03-05T01:51:43.536Z,41.24
2017-03-05T01:52:43.557Z,41.24
2017-03-05T01:53:43.206Z,41.14
2017-03-05T01:54:43.219Z,41.24
2017-03-05T01:55:43.260Z,41.24
2017-03-05T01:56:43.672Z,41.05
2017-03-05T01:57:43.696Z,41.14
2017-03-05T01:58:43.729Z,41.24
2017-03-05T01:59:43.754Z,41.34
2017-03-05T02:00:43.385Z,40.86
2017-03-05T02:01:43.803Z,41.05
2017-03-05T02:02:43.828Z,41.24
2017-03-05T02:03:43.881Z,41.24
2017-03-05T02:04:43.886Z,41.34
2017-03-05T02:05:43.916Z,41.24
2017-03-05T02:06:43.547Z,41.34
2017-03-05T02:07:43.981Z,41.24
2017-03-05T02:08:44.001Z,41.24
2017-03-05T02:09:44.022Z,41.24
2017-03-05T02:10:44.055Z,41.44
2017-03-05T02:11:43.675Z,41.34
2017-03-05T02:12:43.726Z,41.44
2017-03-05T02:13:44.133Z,41.34
2017-03-05T02:14:44.158Z,41.05
2017-03-05T02:15:44.182Z,41.24
2017-03-05T02:16:43.819Z,41.44
2017-03-05T02:17:43.840Z,41.44
2017-03-05T02:18:43.869Z,41.24
2017-03-05T02:19:43.892Z,41.34
2017-03-05T02:20:44.326Z,41.05
2017-03-05T02:21:44.348Z,41.44
2017-03-05T02:22:43.992Z,41.34
2017-03-05T02:23:44.004Z,41.24
2017-03-05T02:24:44.441Z,41.24
2017-03-05T02:25:44.062Z,41.14
2017-03-05T02:26:44.090Z,41.14
2017-03-05T02:27:44.115Z,41.14
2017-03-05T02:28:44.532Z,41.14
2017-03-05T02:29:44.173Z,41.44
2017-03-05T02:30:44.590Z,41.34
2017-03-05T02:31:44.625Z,41.24
2017-03-05T02:32:44.247Z,41.34
2017-03-05T02:33:44.675Z,41.34
2017-03-05T02:34:44.309Z,41.44
2017-03-05T02:35:44.354Z,41.05
2017-03-05T02:36:44.367Z,41.34
2017-03-05T02:37:44.383Z,41.44
2017-03-05T02:38:44.805Z,41.34
2017-03-05T02:39:44.441Z,41.44
2017-03-05T02:40:44.866Z,41.44
2017-03-05T02:41:44.492Z,41.24
2017-03-05T02:42:44.924Z,41.22
2017-03-05T02:43:44.947Z,41.13
2017-03-05T02:44:44.968Z,41.41
2017-03-05T02:45:44.997Z,41.44
2017-03-05T02:46:45.021Z,41.44
2017-03-05T02:47:45.066Z,41.34
2017-03-05T02:48:45.087Z,41.44
2017-03-05T02:49:45.108Z,41.51
2017-03-05T02:50:45.137Z,41.24
2017-03-05T02:51:45.153Z,41.41
2017-03-05T02:52:44.786Z,41.32
2017-03-05T02:53:45.207Z,41.41
2017-03-05T02:54:45.241Z,41.41
2017-03-05T02:55:44.864Z,41.41
2017-03-05T02:56:45.293Z,41.51
2017-03-05T02:57:45.323Z,41.22
2017-03-05T02:58:44.946Z,41.34
2017-03-05T02:59:45.380Z,41.44
2017-03-05T03:00:45.400Z,41.03
2017-03-05T03:01:45.433Z,41.03
2017-03-05T03:02:45.058Z,41.22
2017-03-05T03:03:45.082Z,41.22
2017-03-05T03:04:45.519Z,41.61
2017-03-05T03:05:45.541Z,40.95
2017-03-05T03:06:45.176Z,41.41
2017-03-05T03:07:45.589Z,41.03
2017-03-05T03:08:45.621Z,41.13
2017-03-05T03:09:45.247Z,41.13
2017-03-05T03:10:45.928Z,41.41
2017-03-05T03:11:45.700Z,41.03
2017-03-05T03:12:45.733Z,41.32
2017-03-05T03:13:45.766Z,41.41
2017-03-05T03:14:45.399Z,41.22
2017-03-05T03:15:46.066Z,41.41
2017-03-05T03:16:45.856Z,41.34
2017-03-05T03:17:45.853Z,41.13
2017-03-05T03:18:45.882Z,41.32
2017-03-05T03:19:45.919Z,41.13
2017-03-05T03:20:45.798Z,41.05
2017-03-05T03:21:45.976Z,41.22
2017-03-05T03:22:46.003Z,41.03
2017-03-05T03:23:46.022Z,41.13
2017-03-05T03:24:45.649Z,41.22
2017-03-05T03:25:46.326Z,41.03
2017-03-05T03:26:46.100Z,41.13
2017-03-05T03:27:45.728Z,41.51
2017-03-05T03:28:46.154Z,41.51
2017-03-05T03:29:45.781Z,41.63
2017-03-05T03:30:46.210Z,41.51
2017-03-05T03:31:46.251Z,41.51
2017-03-05T03:32:45.868Z,41.51
2017-03-05T03:33:46.306Z,41.03
2017-03-05T03:34:46.315Z,41.51
2017-03-05T03:35:46.344Z,41.22
2017-03-05T03:36:45.979Z,41.61
2017-03-05T03:37:46.400Z,41.61
2017-03-05T03:38:46.029Z,41.51
2017-03-05T03:39:46.448Z,41.13
2017-03-05T03:40:46.089Z,41.51
2017-03-05T03:41:46.519Z,41.32
2017-03-05T03:42:46.139Z,41.22
2017-03-05T03:43:46.559Z,41.03
2017-03-05T03:44:46.191Z,41.41
2017-03-05T03:45:46.633Z,41.41
2017-03-05T03:46:46.643Z,41.22
2017-03-05T03:47:46.683Z,41.03
2017-03-05T03:48:46.295Z,41.03
2017-03-05T03:49:46.336Z,41.13
2017-03-05T03:50:46.748Z,41.32
2017-03-05T03:51:46.402Z,41.32
2017-03-05T03:52:46.803Z,41.32
2017-03-05T03:53:46.427Z,41.03
2017-03-05T03:54:46.857Z,41.22
2017-03-05T03:55:46.486Z,41.41
2017-03-05T03:56:46.910Z,41.32
2017-03-05T03:57:46.542Z,41.32
2017-03-05T03:58:46.568Z,41.22
2017-03-05T03:59:46.592Z,41.03
2017-03-05T04:00:47.029Z,41.13
2017-03-05T04:01:47.047Z,41.22
2017-03-05T04:02:47.070Z,41.51
2017-03-05T04:03:46.715Z,41.22
2017-03-05T04:04:47.124Z,41.03
2017-03-05T04:05:47.147Z,41.41
2017-03-05T04:06:47.177Z,41.03
2017-03-05T04:07:47.218Z,41.41
2017-03-05T04:08:47.239Z,41.32
2017-03-05T04:09:46.875Z,41.13
2017-03-05T04:10:47.293Z,41.13
2017-03-05T04:11:47.169Z,41.22
2017-03-05T04:12:47.337Z,41.22
2017-03-05T04:13:46.970Z,41.41
2017-03-05T04:14:47.403Z,41.22
2017-03-05T04:15:47.023Z,41.03
2017-03-05T04:16:47.316Z,41.41
2017-03-05T04:17:47.477Z,41.22
2017-03-05T04:18:47.502Z,41.03
2017-03-05T04:19:47.135Z,40.94
2017-03-05T04:20:47.559Z,41.51
2017-03-05T04:21:47.828Z,41.51
2017-03-05T04:22:47.616Z,41.51
2017-03-05T04:23:47.629Z,41.03
2017-03-05T04:24:47.680Z,41.51
2017-03-05T04:25:47.715Z,41.32
2017-03-05T04:26:47.975Z,41.22
2017-03-05T04:27:47.344Z,41.13
2017-03-05T04:28:47.773Z,41.13
2017-03-05T04:29:47.402Z,41.32
2017-03-05T04:30:47.427Z,41.13
2017-03-05T04:31:48.115Z,41.03
2017-03-05T04:32:47.481Z,41.03
2017-03-05T04:33:47.909Z,41.41
2017-03-05T04:34:47.931Z,41.03
2017-03-05T04:35:47.962Z,41.41
2017-03-05T04:36:47.838Z,41.51
2017-03-05T04:37:47.631Z,41.13
2017-03-05T04:38:47.648Z,41.03
2017-03-05T04:39:48.073Z,40.94
2017-03-05T04:40:48.105Z,41.51
2017-03-05T04:41:47.978Z,41.03
2017-03-05T04:42:48.140Z,41.03
2017-03-05T04:43:48.173Z,41.03
2017-03-05T04:44:48.205Z,41.51
2017-03-05T04:45:47.837Z,41.51
2017-03-05T04:46:48.110Z,41.61
2017-03-05T04:47:47.879Z,41.03
2017-03-05T04:48:47.903Z,41.61
2017-03-05T04:49:47.937Z,41.03
2017-03-05T04:50:47.961Z,41.51
2017-03-05T04:51:48.653Z,41.51
2017-03-05T04:52:48.424Z,41.32
2017-03-05T04:53:48.047Z,41.03
2017-03-05T04:54:48.469Z,41.41
2017-03-05T04:55:48.102Z,41.13
2017-03-05T04:56:48.773Z,41.03
2017-03-05T04:57:48.546Z,41.13
2017-03-05T04:58:48.571Z,41.32
2017-03-05T04:59:48.600Z,41.13
2017-03-05T05:00:48.632Z,41.03
2017-03-05T05:01:48.901Z,41.32
2017-03-05T05:02:48.286Z,41.41
2017-03-05T05:03:48.699Z,41.41
2017-03-05T05:04:48.744Z,41.32
2017-03-05T05:05:48.773Z,41.32
2017-03-05T05:06:49.037Z,41.32
2017-03-05T05:07:48.813Z,41.22
2017-03-05T05:08:48.843Z,41.32
2017-03-05T05:09:48.867Z,41.22
2017-03-05T05:10:48.896Z,41.32
2017-03-05T05:11:49.172Z,41.32
2017-03-05T05:12:48.557Z,41.41
2017-03-05T05:13:48.986Z,41.41
2017-03-05T05:14:49.003Z,41.13
2017-03-05T05:15:49.032Z,41.32
2017-03-05T05:16:48.909Z,41.22
2017-03-05T05:17:49.081Z,41.51
2017-03-05T05:18:49.114Z,41.03
2017-03-05T05:19:48.754Z,41.8
2017-03-05T05:20:48.783Z,41.71
2017-03-05T05:21:49.443Z,41.51
2017-03-05T05:22:49.229Z,41.61
2017-03-05T05:23:49.258Z,41.8
2017-03-05T05:24:49.271Z,41.8
2017-03-05T05:25:49.307Z,41.51
2017-03-05T05:26:49.575Z,41.22
2017-03-05T05:27:48.975Z,41.03
2017-03-05T05:28:48.997Z,41.22
2017-03-05T05:29:49.009Z,41.03
2017-03-05T05:30:49.431Z,41.13
2017-03-05T05:31:49.067Z,41.22
2017-03-05T05:32:49.496Z,41.13
2017-03-05T05:33:49.117Z,41.03
2017-03-05T05:34:49.541Z,41.32
2017-03-05T05:35:49.170Z,41.32
2017-03-05T05:36:49.599Z,41.32
2017-03-05T05:37:49.620Z,41.32
2017-03-05T05:38:49.647Z,41.22
2017-03-05T05:39:49.280Z,41.22
2017-03-05T05:40:49.702Z,41.13
2017-03-05T05:41:49.730Z,41.32
2017-03-05T05:42:49.361Z,41.32
2017-03-05T05:43:49.780Z,41.32
2017-03-05T05:44:49.413Z,41.32
2017-03-05T05:45:49.441Z,41.32
2017-03-05T05:46:49.467Z,41.22
2017-03-05T05:47:49.921Z,41.03
2017-03-05T05:48:49.520Z,41.24
2017-03-05T05:49:49.939Z,41.13
2017-03-05T05:50:49.965Z,41.22
2017-03-05T05:51:49.598Z,41.13
2017-03-05T05:52:49.623Z,41.13
2017-03-05T05:53:50.090Z,41.22
2017-03-05T05:54:50.093Z,41.34
2017-03-05T05:55:50.105Z,41.22
2017-03-05T05:56:50.142Z,41.34
2017-03-05T05:57:49.762Z,41.44
2017-03-05T05:58:49.787Z,41.34
2017-03-05T05:59:50.221Z,41.24
2017-03-05T06:00:50.237Z,41.44
2017-03-05T06:01:50.266Z,41.14
2017-03-05T06:02:49.896Z,41.24
2017-03-05T06:03:49.935Z,40.66
2017-03-05T06:04:50.344Z,40.95
2017-03-05T06:05:50.377Z,40.95
2017-03-05T06:06:50.417Z,40.86
2017-03-05T06:07:50.030Z,40.95
2017-03-05T06:08:50.451Z,40.66
2017-03-05T06:09:50.481Z,40.66
2017-03-05T06:10:50.500Z,40.86
2017-03-05T06:11:50.542Z,40.86
2017-03-05T06:12:50.561Z,41.05
2017-03-05T06:13:50.191Z,41.05
2017-03-05T06:14:50.227Z,40.95
2017-03-05T06:15:50.257Z,41.14
2017-03-05T06:16:50.665Z,40.95
2017-03-05T06:17:50.562Z,40.86
2017-03-05T06:18:50.322Z,40.66
2017-03-05T06:19:50.360Z,40.66
2017-03-05T06:20:50.776Z,41.05
2017-03-05T06:21:50.797Z,40.66
2017-03-05T06:22:51.090Z,40.95
2017-03-05T06:23:50.859Z,41.05
2017-03-05T06:24:50.883Z,40.76
2017-03-05T06:25:50.911Z,41.05
2017-03-05T06:26:50.544Z,40.49
2017-03-05T06:27:50.837Z,40.49
2017-03-05T06:28:50.986Z,40.59
2017-03-05T06:29:50.623Z,40.3
2017-03-05T06:30:50.652Z,40.47
2017-03-05T06:31:51.072Z,40.2
2017-03-05T06:32:50.957Z,40.59
2017-03-05T06:33:50.730Z,40.59
2017-03-05T06:34:51.160Z,40.78
2017-03-05T06:35:51.184Z,40.59
2017-03-05T06:36:50.810Z,40.59
2017-03-05T06:37:51.493Z,40.78
2017-03-05T06:38:51.270Z,40.78
2017-03-05T06:39:50.891Z,40.78
2017-03-05T06:40:50.927Z,40.69
2017-03-05T06:41:51.340Z,40.69
2017-03-05T06:42:51.620Z,40.69
2017-03-05T06:43:51.402Z,40.78
2017-03-05T06:44:51.431Z,40.78
2017-03-05T06:45:51.054Z,40.69
2017-03-05T06:46:51.484Z,40.69
2017-03-05T06:47:51.761Z,40.59
2017-03-05T06:48:51.141Z,40.78
2017-03-05T06:49:51.562Z,40.88
2017-03-05T06:50:51.186Z,40.69
2017-03-05T06:51:51.612Z,40.78
2017-03-05T06:52:51.892Z,40.69
2017-03-05T06:53:51.673Z,40.78
2017-03-05T06:54:51.694Z,40.69
2017-03-05T06:55:51.723Z,40.88
2017-03-05T06:56:51.746Z,40.88
2017-03-05T06:57:51.629Z,40.69
2017-03-05T06:58:51.805Z,40.3
2017-03-05T06:59:51.830Z,40.59
2017-03-05T07:00:51.858Z,40.39
2017-03-05T07:01:51.492Z,40.59
2017-03-05T07:02:52.164Z,40.69
2017-03-05T07:03:51.544Z,40.88
2017-03-05T07:04:51.570Z,41.17
2017-03-05T07:05:52.003Z,40.59
2017-03-05T07:06:52.043Z,40.97
2017-03-05T07:07:52.307Z,40.97
2017-03-05T07:08:52.085Z,40.78
2017-03-05T07:09:51.706Z,40.78
2017-03-05T07:10:52.129Z,40.69
2017-03-05T07:11:52.159Z,40.97
2017-03-05T07:12:52.435Z,40.59
2017-03-05T07:13:52.213Z,40.97
2017-03-05T07:14:51.842Z,40.88
2017-03-05T07:15:51.870Z,40.78
2017-03-05T07:16:51.914Z,41.07
2017-03-05T07:17:51.919Z,40.88
2017-03-05T07:18:52.356Z,40.88
2017-03-05T07:19:52.385Z,41.07
2017-03-05T07:20:52.414Z,40.97
2017-03-05T07:21:52.031Z,40.97
2017-03-05T07:22:52.464Z,40.97
2017-03-05T07:23:52.083Z,41.07
2017-03-05T07:24:52.512Z,40.88
2017-03-05T07:25:52.537Z,40.97
2017-03-05T07:26:52.563Z,40.88
2017-03-05T07:27:52.191Z,41.07
2017-03-05T07:28:52.223Z,40.97
2017-03-05T07:29:52.248Z,40.88
2017-03-05T07:30:52.685Z,40.88
2017-03-05T07:31:52.698Z,41.07
2017-03-05T07:32:52.328Z,40.88
2017-03-05T07:33:52.360Z,40.88
2017-03-05T07:34:52.780Z,41.07
2017-03-05T07:35:52.817Z,40.49
2017-03-05T07:36:52.838Z,40.88
2017-03-05T07:37:52.861Z,40.78
2017-03-05T07:38:52.903Z,40.49
2017-03-05T07:39:52.520Z,40.69
2017-03-05T07:40:52.547Z,40.69
2017-03-05T07:41:52.969Z,40.97
2017-03-05T07:42:52.997Z,40.97
2017-03-05T07:43:53.032Z,40.59
2017-03-05T07:44:52.656Z,40.78
2017-03-05T07:45:52.685Z,40.78
2017-03-05T07:46:52.713Z,40.97
2017-03-05T07:47:53.154Z,40.97
2017-03-05T07:48:53.167Z,40.97
2017-03-05T07:49:53.188Z,40.59
2017-03-05T07:50:52.828Z,40.49
2017-03-05T07:51:52.845Z,40.88
2017-03-05T07:52:52.883Z,40.59
2017-03-05T07:53:52.903Z,40.49
2017-03-05T07:54:52.932Z,40.78
2017-03-05T07:55:53.352Z,40.97
2017-03-05T07:56:53.388Z,40.78
2017-03-05T07:57:53.405Z,40.59
2017-03-05T07:58:53.435Z,40.78
2017-03-05T07:59:53.462Z,40.69
2017-03-05T08:00:53.100Z,40.69
2017-03-05T08:01:53.517Z,40.97
2017-03-05T08:02:53.160Z,41.07
2017-03-05T08:03:53.566Z,40.97
2017-03-05T08:04:53.203Z,41.07
2017-03-05T08:05:53.631Z,40.88
2017-03-05T08:06:53.652Z,40.88
2017-03-05T08:07:53.314Z,40.97
2017-03-05T08:08:53.706Z,40.97
2017-03-05T08:09:53.339Z,40.97
2017-03-05T08:10:53.760Z,41.05
2017-03-05T08:11:53.788Z,41.07
2017-03-05T08:12:53.429Z,41.07
2017-03-05T08:13:53.849Z,40.95
2017-03-05T08:14:53.478Z,40.59
2017-03-05T08:15:53.503Z,40.86
2017-03-05T08:16:53.935Z,41.05
2017-03-05T08:17:53.555Z,40.95
2017-03-05T08:18:53.581Z,40.86
2017-03-05T08:19:54.006Z,40.86
2017-03-05T08:20:53.634Z,40.95
2017-03-05T08:21:54.058Z,40.66
2017-03-05T08:22:54.088Z,40.86
2017-03-05T08:23:54.110Z,40.86
2017-03-05T08:24:54.140Z,40.86
2017-03-05T08:25:54.170Z,40.66
2017-03-05T08:26:54.191Z,40.66
2017-03-05T08:27:54.223Z,40.86
2017-03-05T08:28:54.119Z,40.66
2017-03-05T08:29:53.886Z,40.86
2017-03-05T08:30:54.342Z,41.05
2017-03-05T08:31:53.939Z,40.97
2017-03-05T08:32:53.964Z,40.59
2017-03-05T08:33:54.636Z,41.07
2017-03-05T08:34:54.412Z,40.59
2017-03-05T08:35:54.446Z,40.88
2017-03-05T08:36:54.070Z,40.88
2017-03-05T08:37:54.495Z,40.88
2017-03-05T08:38:56.271Z,40.88
2017-03-05T08:39:54.165Z,40.59
2017-03-05T08:40:54.578Z,40.66
2017-03-05T08:41:54.619Z,40.88
2017-03-05T08:42:54.631Z,40.69
2017-03-05T08:43:54.916Z,40.59
2017-03-05T08:44:54.304Z,40.88
2017-03-05T08:45:54.322Z,40.86
2017-03-05T08:46:54.347Z,40.88
2017-03-05T08:47:54.767Z,40.76
2017-03-05T08:48:55.047Z,40.66
2017-03-05T08:49:54.440Z,40.78
2017-03-05T08:50:54.848Z,40.59
2017-03-05T08:51:54.886Z,40.88
2017-03-05T08:52:54.909Z,40.95
2017-03-05T08:53:55.195Z,40.86
2017-03-05T08:54:54.580Z,41.05
2017-03-05T08:55:54.589Z,40.88
2017-03-05T08:56:54.622Z,40.86
2017-03-05T08:57:54.642Z,41.14
2017-03-05T08:58:54.923Z,40.86
2017-03-05T08:59:55.091Z,40.95
2017-03-05T09:00:54.732Z,40.95
2017-03-05T09:01:55.149Z,41.05
2017-03-05T09:02:55.182Z,40.76
2017-03-05T09:03:55.454Z,40.76
2017-03-05T09:04:55.231Z,40.86
2017-03-05T09:05:55.268Z,40.86
2017-03-05T09:06:55.289Z,40.86
2017-03-05T09:07:54.922Z,40.76
2017-03-05T09:08:55.343Z,40.86
2017-03-05T09:09:55.363Z,40.66
2017-03-05T09:10:55.404Z,39.99
2017-03-05T09:11:55.021Z,39.51
2017-03-05T09:12:55.449Z,38.93
2017-03-05T09:13:55.081Z,38.45
2017-03-05T09:14:55.102Z,38.64
2017-03-05T09:15:55.536Z,38.81
2017-03-05T09:16:55.560Z,38.43
2017-03-05T09:17:55.585Z,38.91
2017-03-05T09:18:55.217Z,38.53
2017-03-05T09:19:55.639Z,38.89
2017-03-05T09:20:55.667Z,38.7
2017-03-05T09:21:55.300Z,39.36
2017-03-05T09:22:55.724Z,39.36
2017-03-05T09:23:55.740Z,40.03
2017-03-05T09:24:55.787Z,40.89
2017-03-05T09:25:55.407Z,41.08
2017-03-05T09:26:55.431Z,40.89
2017-03-05T09:27:55.452Z,40.99
2017-03-05T09:28:55.485Z,40.99
2017-03-05T09:29:55.909Z,40.89
2017-03-05T09:30:55.942Z,40.89
2017-03-05T09:31:55.582Z,40.63
2017-03-05T09:32:55.991Z,40.63
2017-03-05T09:33:56.012Z,40.53
2017-03-05T09:34:55.645Z,40.53
2017-03-05T09:35:55.670Z,40.81
2017-03-05T09:36:56.094Z,41.01
2017-03-05T09:37:56.132Z,41.01
2017-03-05T09:38:56.148Z,41.01
2017-03-05T09:39:56.178Z,40.81
2017-03-05T09:40:56.201Z,40.81
2017-03-05T09:41:55.839Z,40.91
2017-03-05T09:42:55.863Z,40.81
2017-03-05T09:43:55.888Z,41.01
2017-03-05T09:44:56.312Z,40.81
2017-03-05T09:45:56.341Z,40.63
2017-03-05T09:46:56.365Z,40.63
2017-03-05T09:47:56.387Z,41.22
2017-03-05T09:48:56.020Z,41.32
2017-03-05T09:49:56.445Z,41.41
2017-03-05T09:50:56.079Z,42.09
2017-03-05T09:51:56.494Z,41.8
2017-03-05T09:52:56.534Z,42.28
2017-03-05T09:53:56.547Z,42.47
2017-03-05T09:54:56.179Z,42.38
2017-03-05T09:55:56.204Z,42.47
2017-03-05T09:56:56.633Z,42.28
2017-03-05T09:57:56.658Z,42.09
2017-03-05T09:58:56.287Z,42.38
2017-03-05T09:59:56.560Z,42.19
2017-03-05T10:00:56.749Z,42.19
2017-03-05T10:01:56.769Z,42.19
2017-03-05T10:02:56.794Z,42.28
2017-03-05T10:03:56.814Z,42.28
2017-03-05T10:04:58.195Z,42.38
2017-03-05T10:05:56.879Z,42.47
2017-03-05T10:06:56.896Z,42.38
2017-03-05T10:07:56.529Z,42.09
2017-03-05T10:08:56.954Z,42.21
2017-03-05T10:09:56.579Z,42.3
2017-03-05T10:10:57.008Z,42.3
2017-03-05T10:11:56.640Z,42.4
2017-03-05T10:12:57.056Z,42.57
2017-03-05T10:13:57.090Z,42.76
2017-03-05T10:14:56.730Z,42.69
2017-03-05T10:15:57.144Z,42.88
2017-03-05T10:16:57.168Z,42.4
2017-03-05T10:17:56.796Z,42.4
2017-03-05T10:18:57.217Z,42.59
2017-03-05T10:19:56.854Z,42.69
2017-03-05T10:20:56.879Z,42.59
2017-03-05T10:21:56.908Z,42.59
2017-03-05T10:22:57.336Z,42.79
2017-03-05T10:23:57.350Z,42.4
2017-03-05T10:24:56.985Z,42.69
2017-03-05T10:25:57.014Z,42.49
2017-03-05T10:26:57.039Z,42.4
2017-03-05T10:27:57.476Z,42.49
2017-03-05T10:28:57.485Z,42.69
2017-03-05T10:29:57.520Z,42.59
2017-03-05T10:30:57.151Z,42.11
2017-03-05T10:31:57.580Z,42.02
2017-03-05T10:32:57.595Z,42.11
2017-03-05T10:33:57.228Z,42.3
2017-03-05T10:34:57.253Z,42.3
2017-03-05T10:35:57.677Z,42.59
2017-03-05T10:36:57.721Z,42.4
2017-03-05T10:37:57.740Z,42.59
2017-03-05T10:38:57.780Z,42.4
2017-03-05T10:39:57.392Z,42.49
2017-03-05T10:40:57.425Z,42.59
2017-03-05T10:41:57.842Z,42.02
2017-03-05T10:42:57.864Z,41.92
2017-03-05T10:43:57.892Z,42.4
2017-03-05T10:44:57.920Z,42.3
2017-03-05T10:45:57.948Z,42.4
2017-03-05T10:46:57.977Z,42.21
2017-03-05T10:47:57.603Z,41.63
2017-03-05T10:48:58.027Z,41.63
2017-03-05T10:49:57.664Z,41.63
2017-03-05T10:50:58.085Z,41.53
2017-03-05T10:51:57.725Z,41.63
2017-03-05T10:52:58.151Z,41.63
2017-03-05T10:53:57.762Z,41.14
2017-03-05T10:54:57.804Z,42.02
2017-03-05T10:55:57.824Z,42.11
2017-03-05T10:56:58.246Z,41.82
2017-03-05T10:57:58.275Z,41.24
2017-03-05T10:58:57.903Z,42.3
2017-03-05T10:59:57.928Z,42.21
2017-03-05T11:00:58.360Z,41.92
2017-03-05T11:01:57.989Z,41.72
2017-03-05T11:02:58.017Z,41.34
2017-03-05T11:03:58.425Z,41.53
2017-03-05T11:04:58.068Z,41.05
2017-03-05T11:05:58.491Z,41.24
2017-03-05T11:06:58.526Z,41.34
2017-03-05T11:07:58.149Z,41.24
2017-03-05T11:08:58.594Z,41.24
2017-03-05T11:09:58.595Z,41.53
2017-03-05T11:10:58.640Z,41.44
2017-03-05T11:11:58.665Z,41.24
2017-03-05T11:12:58.677Z,41.53
2017-03-05T11:13:58.702Z,41.14
2017-03-05T11:14:58.734Z,41.53
2017-03-05T11:15:58.367Z,41.53
2017-03-05T11:16:58.788Z,41.53
2017-03-05T11:17:58.832Z,41.44
2017-03-05T11:18:58.848Z,41.63
2017-03-05T11:19:58.890Z,41.14
2017-03-05T11:20:58.895Z,41.53
2017-03-05T11:21:58.923Z,41.84
2017-03-05T11:22:58.553Z,41.44
2017-03-05T11:23:58.594Z,41.53
2017-03-05T11:24:59.002Z,41.65
2017-03-05T11:25:59.047Z,41.53
2017-03-05T11:26:59.065Z,41.46
2017-03-05T11:27:59.096Z,41.63
2017-03-05T11:28:59.116Z,41.65
2017-03-05T11:29:59.141Z,41.36
2017-03-05T11:30:58.770Z,40.66
2017-03-05T11:31:59.194Z,40.78
2017-03-05T11:32:58.827Z,41.14
2017-03-05T11:33:59.255Z,40.88
2017-03-05T11:34:59.277Z,40.59
2017-03-05T11:35:59.322Z,40.59
2017-03-05T11:36:59.339Z,40.39
2017-03-05T11:37:59.359Z,40.69
2017-03-05T11:38:59.404Z,40.49
2017-03-05T11:39:59.008Z,40.01
2017-03-05T11:40:59.697Z,39.82
2017-03-05T11:41:59.468Z,40.01
2017-03-05T11:42:59.119Z,39.34
2017-03-05T11:43:59.154Z,39.14
2017-03-05T11:44:59.152Z,38.76
2017-03-05T11:45:59.849Z,38.58
2017-03-05T11:46:59.610Z,38.49
2017-03-05T11:47:59.645Z,38.1
2017-03-05T11:48:59.258Z,37.62
2017-03-05T11:49:59.684Z,37.62
2017-03-05T11:50:59.972Z,37.43
2017-03-05T11:51:59.744Z,37.15
2017-03-05T11:52:59.781Z,36.96
2017-03-05T11:53:59.798Z,36.77
2017-03-05T11:54:59.435Z,36.48
2017-03-05T11:55:59.710Z,36.29
2017-03-05T11:56:59.876Z,36.09
2017-03-05T11:57:59.921Z,36.19
2017-03-05T11:58:59.537Z,36.09
2017-03-05T11:59:59.970Z,35.9
2017-03-05T12:01:01.743Z,36
2017-03-05T12:02:00.020Z,35.71
2017-03-05T12:03:00.045Z,35.9
2017-03-05T12:03:59.685Z,36
2017-03-05T12:04:59.698Z,35.71
2017-03-05T12:05:59.739Z,35.71
2017-03-05T12:07:00.155Z,35.61
2017-03-05T12:08:00.180Z,35.71
2017-03-05T12:09:00.213Z,35.8
2017-03-05T12:09:59.833Z,35.71
2017-03-05T12:11:00.282Z,35.9
2017-03-05T12:12:00.315Z,36
2017-03-05T12:13:00.322Z,35.5
2017-03-05T12:14:00.348Z,35.88
2017-03-05T12:15:00.369Z,35.5
2017-03-05T12:16:00.434Z,35.88
2017-03-05T12:17:00.430Z,35.61
2017-03-05T12:18:00.464Z,35.78
2017-03-05T12:19:00.096Z,35.9
2017-03-05T12:20:00.516Z,35.9
2017-03-05T12:21:00.541Z,35.61
2017-03-05T12:22:00.174Z,35.9
2017-03-05T12:23:00.198Z,35.8
2017-03-05T12:24:00.234Z,35.71
2017-03-05T12:25:00.655Z,35.61
2017-03-05T12:26:00.685Z,35.71
2017-03-05T12:27:00.712Z,35.71
2017-03-05T12:28:00.343Z,36.29
2017-03-05T12:29:00.771Z,35.78
2017-03-05T12:30:00.794Z,35.9
2017-03-05T12:31:00.424Z,36
2017-03-05T12:32:00.460Z,36.29
2017-03-05T12:33:00.874Z,36
2017-03-05T12:34:00.509Z,36.29
2017-03-05T12:35:00.531Z,36.36
2017-03-05T12:36:00.960Z,36.27
2017-03-05T12:37:00.589Z,36.27
2017-03-05T12:38:01.024Z,35.98
2017-03-05T12:39:01.041Z,36.17
2017-03-05T12:40:00.674Z,36.46
2017-03-05T12:41:01.123Z,36.65
2017-03-05T12:42:01.127Z,36.55
2017-03-05T12:43:00.753Z,36.36
2017-03-05T12:44:01.177Z,36.55
2017-03-05T12:45:00.822Z,36.46
2017-03-05T12:46:01.235Z,36.85
2017-03-05T12:47:00.892Z,36.55
2017-03-05T12:48:00.901Z,36.75
2017-03-05T12:49:01.318Z,36.75
2017-03-05T12:50:01.346Z,36.65
2017-03-05T12:51:01.385Z,36.73
2017-03-05T12:52:01.002Z,37.23
2017-03-05T12:53:01.039Z,37.21
2017-03-05T12:54:01.461Z,36.83
2017-03-05T12:55:01.093Z,37.02